Time;durP1;ratioP1;P1;durP2;ratioP2;P2;SDS_P1;SDS_P2;PMS_P1;PMS_P2;Temp;Humidity;BMP_temperature;BMP_pressure;BME280_temperature;BME280_humidity;BME280_pressure;Samples;Min_cycle;Max_cycle;Signal;HPM_P1;HPM_P2
2023/07/29 00:00:56;;;;;;;4.20;2.17;;;19.90;65.20;;;;;;5081879;28;20108;-66
2023/07/29 00:03:22;;;;;;;4.70;2.10;;;20.00;65.40;;;;;;5080509;28;20471;-67
2023/07/29 00:05:49;;;;;;;3.25;2.22;;;19.90;65.30;;;;;;5075108;28;20036;-67
2023/07/29 00:08:14;;;;;;;3.00;2.05;;;19.90;65.30;;;;;;5072818;28;20384;-69
2023/07/29 00:10:40;;;;;;;4.55;1.95;;;19.90;65.40;;;;;;5083548;28;20729;-66
2023/07/29 00:13:07;;;;;;;2.63;1.92;;;19.80;65.30;;;;;;5081078;28;20024;-69
2023/07/29 00:15:33;;;;;;;3.92;1.98;;;19.90;65.50;;;;;;5080651;28;20038;-66
2023/07/29 00:17:59;;;;;;;3.42;1.83;;;19.80;65.30;;;;;;5081764;28;20115;-73
2023/07/29 00:20:25;;;;;;;2.15;1.90;;;19.80;65.40;;;;;;5081588;28;20131;-70
2023/07/29 00:22:53;;;;;;;3.22;1.85;;;19.80;65.50;;;;;;5081386;28;20054;-72
2023/07/29 00:25:19;;;;;;;2.95;1.77;;;19.80;65.50;;;;;;5076491;28;20564;-76
2023/07/29 00:27:46;;;;;;;2.20;1.48;;;19.80;65.60;;;;;;5082837;28;20036;-74
2023/07/29 00:30:12;;;;;;;3.50;2.00;;;19.70;65.50;;;;;;5080977;28;20511;-77
2023/07/29 00:32:38;;;;;;;3.38;2.33;;;19.70;65.60;;;;;;5081494;28;20052;-67
2023/07/29 00:35:06;;;;;;;3.45;1.95;;;19.70;65.60;;;;;;5077202;28;20052;-76
2023/07/29 00:37:32;;;;;;;2.75;2.17;;;19.60;65.50;;;;;;5073354;28;20120;-74
2023/07/29 00:39:58;;;;;;;2.13;1.40;;;19.70;65.70;;;;;;5086281;28;20115;-77
2023/07/29 00:42:25;;;;;;;3.10;2.17;;;19.70;65.70;;;;;;5082344;28;20028;-69
2023/07/29 00:44:52;;;;;;;4.25;2.20;;;19.60;65.60;;;;;;5077066;28;20040;-69
2023/07/29 00:47:20;;;;;;;4.05;2.40;;;19.60;65.70;;;;;;5081891;28;20036;-78
2023/07/29 00:49:49;;;;;;;5.15;2.53;;;19.60;65.70;;;;;;5080706;28;20686;-68
2023/07/29 00:52:16;;;;;;;2.67;1.95;;;19.50;65.60;;;;;;5081063;28;20028;-70
2023/07/29 00:54:42;;;;;;;5.32;1.77;;;19.60;65.80;;;;;;5080140;28;20032;-79
2023/07/29 00:57:09;;;;;;;3.90;2.20;;;19.50;65.70;;;;;;5085689;28;20109;-72
2023/07/29 00:59:40;;;;;;;2.92;1.88;;;19.50;65.80;;;;;;5073595;28;20683;-79
2023/07/29 01:02:07;;;;;;;2.40;2.20;;;19.50;65.90;;;;;;5074466;28;20036;-74
2023/07/29 01:04:32;;;;;;;3.53;2.13;;;19.50;65.90;;;;;;5091016;28;20039;-77
2023/07/29 01:07:11;;;;;;;4.75;2.00;;;19.40;65.80;;;;;;5079625;28;20036;-81
2023/07/29 01:09:49;;;;;;;5.07;2.15;;;19.50;66.10;;;;;;5080765;28;20028;-76
2023/07/29 01:12:33;;;;;;;3.35;1.85;;;19.50;66.00;;;;;;5081279;28;20432;-71
2023/07/29 01:15:12;;;;;;;4.97;1.85;;;19.40;66.00;;;;;;5078959;28;20133;-75
2023/07/29 01:17:54;;;;;;;3.17;1.80;;;19.40;66.00;;;;;;5083779;28;20036;-76
2023/07/29 01:20:21;;;;;;;4.32;1.88;;;19.40;66.10;;;;;;5062453;28;20122;-73
2023/07/29 01:22:48;;;;;;;5.28;2.15;;;19.30;65.90;;;;;;5080354;28;20041;-72
2023/07/29 01:25:22;;;;;;;3.80;2.13;;;19.30;66.00;;;;;;5081618;28;20568;-77
2023/07/29 01:27:51;;;;;;;3.45;2.05;;;19.40;66.20;;;;;;5080431;28;20070;-69
2023/07/29 01:30:18;;;;;;;2.13;1.92;;;19.40;66.40;;;;;;5078726;28;20047;-74
2023/07/29 01:33:10;;;;;;;3.38;2.40;;;19.40;66.40;;;;;;5079307;28;20036;-74
2023/07/29 01:35:49;;;;;;;5.55;2.47;;;19.30;66.40;;;;;;5073493;28;20070;-68
2023/07/29 01:38:24;;;;;;;;;;;19.30;66.40;;;;;;5077020;28;20032;-67
2023/07/29 01:40:52;;;;;;;5.85;2.10;;;19.30;66.20;;;;;;5080305;28;19908;-68
2023/07/29 01:43:23;;;;;;;2.55;2.20;;;19.20;66.00;;;;;;5079901;28;20046;-68
2023/07/29 01:45:49;;;;;;;3.58;2.10;;;19.20;66.10;;;;;;5080388;28;20047;-67
2023/07/29 01:48:17;;;;;;;14.80;3.33;;;19.20;66.20;;;;;;5084863;28;20028;-67
2023/07/29 01:50:43;;;;;;;7.15;2.58;;;19.20;66.30;;;;;;5091391;28;20077;-68
2023/07/29 01:53:09;;;;;;;5.10;2.60;;;19.20;66.40;;;;;;5090183;28;20032;-66
2023/07/29 01:55:39;;;;;;;4.68;2.63;;;19.20;66.50;;;;;;5087019;28;20434;-68
2023/07/29 01:58:07;;;;;;;3.42;2.15;;;19.20;66.60;;;;;;5085563;28;20101;-66
2023/07/29 02:00:35;;;;;;;4.00;2.10;;;19.10;66.40;;;;;;5089126;28;20039;-66
2023/07/29 02:03:02;;;;;;;3.65;2.30;;;19.10;66.40;;;;;;5086165;28;20035;-69
2023/07/29 02:05:28;;;;;;;5.57;2.70;;;19.10;66.50;;;;;;5097597;28;20040;-69
2023/07/29 02:07:54;;;;;;;3.75;2.38;;;19.10;66.60;;;;;;5077331;28;20024;-70
2023/07/29 02:10:20;;;;;;;3.95;2.72;;;19.10;66.70;;;;;;5098659;28;20044;-73
2023/07/29 02:12:46;;;;;;;3.63;2.45;;;19.10;66.70;;;;;;5085496;28;20113;-67
2023/07/29 02:15:12;;;;;;;3.58;2.42;;;19.00;66.60;;;;;;5084848;28;20111;-69
2023/07/29 02:17:42;;;;;;;3.33;2.08;;;19.00;66.70;;;;;;5076486;28;20031;-73
2023/07/29 02:20:08;;;;;;;5.00;3.22;;;19.00;66.80;;;;;;5077966;28;20040;-71
2023/07/29 02:22:37;;;;;;;4.28;2.25;;;19.00;66.80;;;;;;5088933;28;20031;-73
2023/07/29 02:25:04;;;;;;;3.95;2.22;;;19.00;67.40;;;;;;5088715;28;20098;-67
2023/07/29 02:27:30;;;;;;;4.38;2.70;;;19.00;66.90;;;;;;5087356;28;20054;-72
2023/07/29 02:29:56;;;;;;;5.05;2.55;;;18.90;66.80;;;;;;5086050;28;20053;-79
2023/07/29 02:32:22;;;;;;;3.63;2.50;;;19.00;67.00;;;;;;5092511;28;20043;-76
2023/07/29 02:34:48;;;;;;;4.30;2.45;;;18.90;66.90;;;;;;5082371;28;20135;-80
2023/07/29 02:37:15;;;;;;;3.47;2.05;;;18.90;66.90;;;;;;5091149;28;20104;-77
2023/07/29 02:39:41;;;;;;;5.22;2.60;;;18.90;66.90;;;;;;5084510;28;20036;-75
2023/07/29 02:42:07;;;;;;;4.22;2.30;;;18.90;66.90;;;;;;5089701;28;20403;-70
2023/07/29 02:44:33;;;;;;;5.57;2.28;;;18.90;66.90;;;;;;5087319;28;20032;-78
2023/07/29 02:46:59;;;;;;;5.57;3.10;;;18.90;66.90;;;;;;5095425;28;20031;-77
2023/07/29 02:49:25;;;;;;;4.95;2.55;;;18.80;66.80;;;;;;5085390;28;20020;-77
2023/07/29 02:51:51;;;;;;;3.03;2.00;;;18.80;66.80;;;;;;5089153;28;20054;-78
2023/07/29 02:54:17;;;;;;;3.45;1.92;;;18.80;66.90;;;;;;5087758;28;20070;-71
2023/07/29 02:56:43;;;;;;;4.55;2.70;;;18.80;66.90;;;;;;5091192;28;20071;-78
2023/07/29 02:59:09;;;;;;;3.50;2.00;;;18.80;67.40;;;;;;5090303;28;20032;-77
2023/07/29 03:01:35;;;;;;;4.20;1.88;;;18.80;66.90;;;;;;5090097;28;20456;-78
2023/07/29 03:04:01;;;;;;;3.50;2.15;;;18.80;66.90;;;;;;5089594;28;20028;-75
2023/07/29 03:06:43;;;;;;;4.15;2.63;;;18.80;67.00;;;;;;5084472;28;20606;-68
2023/07/29 03:09:09;;;;;;;5.63;1.98;;;18.70;66.70;;;;;;5091896;28;20024;-72
2023/07/29 03:11:35;;;;;;;3.47;2.42;;;18.80;67.00;;;;;;5089927;28;20040;-78
2023/07/29 03:14:04;;;;;;;3.85;1.88;;;18.80;67.00;;;;;;5085975;28;20070;-77
2023/07/29 03:16:30;;;;;;;4.20;2.75;;;18.70;66.80;;;;;;5080892;28;20032;-76
2023/07/29 03:19:00;;;;;;;4.97;2.10;;;18.70;66.90;;;;;;5089472;28;20703;-75
2023/07/29 03:21:26;;;;;;;4.47;2.13;;;18.70;66.90;;;;;;5095029;28;20103;-77
2023/07/29 03:23:52;;;;;;;3.35;2.22;;;18.70;67.00;;;;;;5088835;28;20113;-73
2023/07/29 03:26:17;;;;;;;4.35;2.25;;;18.70;67.00;;;;;;5097081;28;20047;-67
2023/07/29 03:28:43;;;;;;;3.05;1.90;;;18.70;67.00;;;;;;5084384;28;20101;-66
2023/07/29 03:31:10;;;;;;;2.92;2.13;;;18.60;66.90;;;;;;5087898;28;20383;-67
2023/07/29 03:33:37;;;;;;;3.13;2.53;;;18.60;66.90;;;;;;5090842;28;20052;-70
2023/07/29 03:36:03;;;;;;;2.40;2.20;;;18.70;67.20;;;;;;5097017;28;20088;-67
2023/07/29 03:38:29;;;;;;;3.08;2.20;;;18.60;67.10;;;;;;5083598;27;20085;-67
2023/07/29 03:40:55;;;;;;;3.22;2.33;;;18.70;67.30;;;;;;5082478;28;20024;-69
2023/07/29 03:43:21;;;;;;;2.70;2.08;;;18.60;67.10;;;;;;5087799;28;20054;-67
2023/07/29 03:45:47;;;;;;;2.28;1.90;;;18.60;67.00;;;;;;5095206;28;20047;-68
2023/07/29 03:48:13;;;;;;;4.43;2.20;;;18.60;67.00;;;;;;5078025;28;20518;-67
2023/07/29 03:50:39;;;;;;;2.80;2.42;;;18.60;67.10;;;;;;5091916;28;20059;-67
2023/07/29 03:53:06;;;;;;;4.63;2.72;;;18.60;67.20;;;;;;5090591;28;20028;-69
2023/07/29 03:55:32;;;;;;;5.68;2.53;;;18.60;67.20;;;;;;5072964;28;20093;-66
2023/07/29 03:58:00;;;;;;;3.70;2.05;;;18.60;67.20;;;;;;5088250;28;20066;-67
2023/07/29 04:00:29;;;;;;;3.78;2.53;;;18.60;67.20;;;;;;5095431;28;20150;-67
2023/07/29 04:02:55;;;;;;;2.47;2.03;;;18.60;67.20;;;;;;5081829;28;20535;-66
2023/07/29 04:05:21;;;;;;;4.40;2.80;;;18.60;67.30;;;;;;5081520;28;20066;-70
2023/07/29 04:07:48;;;;;;;5.10;2.80;;;18.50;67.10;;;;;;5077843;28;20631;-70
2023/07/29 04:10:14;;;;;;;4.57;2.13;;;18.50;67.10;;;;;;5082147;28;20078;-66
2023/07/29 04:12:40;;;;;;;4.43;2.70;;;18.50;67.20;;;;;;5082952;28;20429;-70
2023/07/29 04:15:07;;;;;;;5.78;2.50;;;18.60;67.50;;;;;;5081480;28;20035;-69
2023/07/29 04:17:33;;;;;;;8.18;3.42;;;18.60;67.60;;;;;;5081568;28;20044;-71
2023/07/29 04:19:59;;;;;;;8.20;2.90;;;18.60;67.60;;;;;;5089072;28;20046;-73
2023/07/29 04:22:31;;;;;;;5.77;1.93;;;18.60;67.70;;;;;;5083385;28;20158;-71
2023/07/29 04:24:57;;;;;;;7.50;2.03;;;18.60;67.80;;;;;;5093770;28;20326;-73
2023/07/29 04:27:23;;;;;;;4.15;2.05;;;18.50;67.60;;;;;;5084596;28;20394;-67
2023/07/29 04:29:49;;;;;;;6.80;2.50;;;18.60;67.90;;;;;;5089097;28;20585;-68
2023/07/29 04:32:15;;;;;;;4.97;2.00;;;18.50;68.30;;;;;;5090902;28;20024;-69
2023/07/29 04:34:42;;;;;;;5.30;2.28;;;18.50;67.80;;;;;;5094471;28;20101;-69
2023/07/29 04:37:08;;;;;;;4.93;1.98;;;18.50;67.90;;;;;;5087314;28;20036;-75
2023/07/29 04:39:34;;;;;;;4.22;2.03;;;18.50;67.90;;;;;;5067926;28;20150;-69
2023/07/29 04:42:00;;;;;;;5.30;2.20;;;18.50;68.00;;;;;;5088771;28;20028;-67
2023/07/29 04:44:26;;;;;;;6.55;2.17;;;18.50;68.00;;;;;;5092604;28;20199;-68
2023/07/29 04:46:52;;;;;;;6.15;2.42;;;18.50;68.00;;;;;;5095377;28;20163;-67
2023/07/29 04:49:18;;;;;;;4.85;1.70;;;18.50;68.10;;;;;;5077340;28;20483;-66
2023/07/29 04:51:44;;;;;;;6.15;2.30;;;18.50;68.10;;;;;;5090135;28;20040;-66
2023/07/29 04:54:10;;;;;;;4.38;2.08;;;18.40;68.00;;;;;;5090701;28;20032;-67
2023/07/29 04:56:36;;;;;;;4.75;1.85;;;18.40;68.00;;;;;;5090576;28;20043;-66
2023/07/29 04:59:02;;;;;;;4.88;2.95;;;18.40;68.10;;;;;;5091467;28;20467;-67
2023/07/29 05:01:28;;;;;;;4.63;2.38;;;18.30;67.90;;;;;;5084347;28;20096;-67
2023/07/29 05:03:54;;;;;;;3.67;1.73;;;18.30;68.00;;;;;;5084423;28;20036;-68
2023/07/29 05:06:20;;;;;;;5.07;2.10;;;18.30;68.00;;;;;;5078617;28;20052;-66
2023/07/29 05:08:46;;;;;;;5.75;2.20;;;18.20;67.90;;;;;;5074587;28;20036;-70
2023/07/29 05:11:13;;;;;;;5.95;2.35;;;18.20;68.00;;;;;;5080266;28;20035;-67
2023/07/29 05:13:39;;;;;;;3.70;1.98;;;18.20;68.00;;;;;;5077346;28;20060;-67
2023/07/29 05:16:05;;;;;;;3.92;2.03;;;18.20;68.10;;;;;;5083160;28;20118;-69
2023/07/29 05:18:32;;;;;;;3.65;1.85;;;18.20;68.20;;;;;;5080400;28;20036;-67
2023/07/29 05:20:58;;;;;;;5.88;2.22;;;18.20;68.20;;;;;;5081054;28;20457;-68
2023/07/29 05:23:24;;;;;;;5.32;1.70;;;18.10;68.10;;;;;;5079380;28;20047;-66
2023/07/29 05:25:50;;;;;;;5.50;2.80;;;18.10;68.10;;;;;;5080852;28;20044;-67
2023/07/29 05:28:16;;;;;;;3.55;1.60;;;18.10;68.10;;;;;;5078779;28;20051;-69
2023/07/29 05:30:44;;;;;;;2.78;1.60;;;18.20;68.30;;;;;;5079241;28;20126;-68
2023/07/29 05:33:10;;;;;;;6.07;2.38;;;18.30;68.70;;;;;;5061284;28;20055;-68
2023/07/29 05:35:36;;;;;;;2.88;2.00;;;18.30;69.30;;;;;;5073124;28;20163;-70
2023/07/29 05:38:03;;;;;;;4.78;1.67;;;18.50;70.10;;;;;;5072250;28;20032;-67
2023/07/29 05:40:30;;;;;;;5.05;2.35;;;18.60;70.40;;;;;;5076262;28;20066;-69
2023/07/29 05:42:56;;;;;;;5.45;1.92;;;18.70;70.80;;;;;;5078061;28;20491;-71
2023/07/29 05:45:22;;;;;;;5.70;1.88;;;18.80;71.10;;;;;;5083983;28;20441;-70
2023/07/29 05:47:49;;;;;;;6.38;2.25;;;19.00;71.50;;;;;;5077521;28;20419;-68
2023/07/29 05:50:15;;;;;;;9.25;2.35;;;19.10;71.80;;;;;;5076200;28;20453;-68
2023/07/29 05:52:41;;;;;;;3.30;2.50;;;19.20;72.10;;;;;;5078426;28;20043;-68
2023/07/29 05:55:08;;;;;;;3.30;2.00;;;19.30;72.30;;;;;;5067738;28;20067;-68
2023/07/29 05:57:33;;;;;;;4.05;2.08;;;19.40;72.50;;;;;;5062469;28;20032;-65
2023/07/29 05:59:59;;;;;;;2.83;1.73;;;19.50;72.50;;;;;;5084808;28;20042;-66
2023/07/29 06:02:26;;;;;;;2.78;1.70;;;19.50;72.50;;;;;;5082934;28;20059;-66
2023/07/29 06:04:52;;;;;;;4.90;1.95;;;19.60;72.70;;;;;;5085416;28;20452;-70
2023/07/29 06:07:18;;;;;;;3.92;1.88;;;19.70;72.80;;;;;;5076936;28;20684;-69
2023/07/29 06:09:44;;;;;;;4.05;2.03;;;19.70;72.90;;;;;;5082800;28;20028;-65
2023/07/29 06:12:11;;;;;;;6.10;2.25;;;19.80;73.00;;;;;;5080211;28;20661;-65
2023/07/29 06:14:37;;;;;;;4.65;2.88;;;19.90;73.10;;;;;;5081577;28;20043;-74
2023/07/29 06:17:03;;;;;;;4.30;2.33;;;20.10;73.30;;;;;;5084300;28;20032;-74
2023/07/29 06:19:29;;;;;;;4.53;2.50;;;20.30;73.20;;;;;;5084626;28;20032;-70
2023/07/29 06:21:58;;;;;;;4.10;2.85;;;20.50;73.20;;;;;;5079924;28;20039;-68
2023/07/29 06:24:24;;;;;;;6.32;2.90;;;20.80;73.20;;;;;;5080832;28;20044;-66
2023/07/29 06:26:50;;;;;;;4.60;2.08;;;21.00;73.00;;;;;;5080374;28;20032;-66
2023/07/29 06:29:16;;;;;;;6.80;3.10;;;21.20;72.80;;;;;;5084738;28;20139;-67
2023/07/29 06:31:41;;;;;;;3.50;2.13;;;21.30;72.40;;;;;;5081500;28;20380;-71
2023/07/29 06:34:07;;;;;;;2.67;1.75;;;21.40;72.40;;;;;;5084576;28;20513;-71
2023/07/29 06:36:34;;;;;;;2.63;2.40;;;21.50;72.40;;;;;;5075947;28;20590;-72
2023/07/29 06:39:00;;;;;;;3.80;2.22;;;21.50;72.40;;;;;;5078776;28;20043;-68
2023/07/29 06:41:26;;;;;;;3.00;1.92;;;21.50;72.20;;;;;;5079347;28;20032;-81
2023/07/29 06:43:51;;;;;;;4.00;1.83;;;21.50;72.00;;;;;;5073196;28;20117;-77
2023/07/29 06:46:17;;;;;;;5.13;2.08;;;21.60;72.10;;;;;;5082898;28;20088;-75
2023/07/29 06:48:43;;;;;;;3.33;1.90;;;21.60;72.10;;;;;;5078285;28;20028;-83
2023/07/29 06:51:09;;;;;;;3.22;1.80;;;21.70;72.20;;;;;;5080646;28;20040;-76
2023/07/29 06:53:35;;;;;;;4.13;2.03;;;21.70;72.00;;;;;;5080965;28;20040;-68
2023/07/29 06:56:01;;;;;;;7.13;2.25;;;21.80;71.80;;;;;;5079955;28;20058;-79
2023/07/29 06:58:27;;;;;;;6.05;2.83;;;22.10;71.80;;;;;;5084029;28;20040;-75
2023/07/29 07:00:53;;;;;;;4.88;1.75;;;22.20;71.30;;;;;;5080151;28;20119;-69
2023/07/29 07:03:19;;;;;;;7.15;2.97;;;22.60;71.20;;;;;;5079087;28;20040;-65
2023/07/29 07:05:45;;;;;;;5.40;2.80;;;23.00;70.90;;;;;;5086646;28;20104;-66
2023/07/29 07:08:11;;;;;;;3.58;1.77;;;23.50;70.40;;;;;;5069053;28;20055;-65
2023/07/29 07:10:37;;;;;;;3.38;1.52;;;24.20;69.80;;;;;;5084271;28;20036;-66
2023/07/29 07:13:03;;;;;;;3.50;1.73;;;24.80;69.00;;;;;;5080748;28;20032;-68
2023/07/29 07:15:29;;;;;;;3.88;1.20;;;25.40;67.60;;;;;;5081739;28;20032;-66
2023/07/29 07:17:54;;;;;;;3.13;1.58;;;26.00;66.30;;;;;;5078108;28;20020;-65
2023/07/29 07:20:21;;;;;;;4.45;1.55;;;26.60;65.10;;;;;;5081444;28;20055;-67
2023/07/29 07:22:47;;;;;;;5.65;1.70;;;27.10;63.80;;;;;;5080284;28;20040;-67
2023/07/29 07:25:13;;;;;;;4.75;2.20;;;27.40;62.50;;;;;;5079696;28;20043;-68
2023/07/29 07:27:39;;;;;;;4.10;1.58;;;27.40;62.10;;;;;;5081263;28;20047;-67
2023/07/29 07:30:05;;;;;;;5.18;2.22;;;27.30;61.80;;;;;;5082128;28;20028;-67
2023/07/29 07:32:31;;;;;;;2.50;1.33;;;27.00;62.10;;;;;;5075084;28;20039;-77
2023/07/29 07:34:58;;;;;;;4.43;1.77;;;26.80;61.80;;;;;;5083850;28;20052;-68
2023/07/29 07:37:24;;;;;;;6.20;1.90;;;26.50;62.10;;;;;;5077770;28;20715;-71
2023/07/29 07:39:50;;;;;;;4.00;2.10;;;26.20;62.40;;;;;;5081327;28;20035;-74
2023/07/29 07:42:16;;;;;;;5.40;1.60;;;25.80;62.60;;;;;;5080811;28;20596;-71
2023/07/29 07:44:42;;;;;;;2.80;1.67;;;25.50;63.50;;;;;;5080188;28;20572;-74
2023/07/29 07:47:08;;;;;;;6.78;2.28;;;25.30;63.30;;;;;;5089859;28;20701;-68
2023/07/29 07:49:34;;;;;;;5.18;2.72;;;25.10;63.50;;;;;;5077049;28;20051;-71
2023/07/29 07:52:00;;;;;;;4.95;1.92;;;24.90;63.60;;;;;;5079551;28;20486;-67
2023/07/29 07:54:25;;;;;;;6.97;2.50;;;24.80;63.60;;;;;;5078963;28;20514;-70
2023/07/29 07:56:52;;;;;;;4.45;2.58;;;24.70;63.60;;;;;;5076884;28;20020;-76
2023/07/29 07:59:18;;;;;;;5.00;2.45;;;24.70;63.80;;;;;;5080385;28;20040;-72
2023/07/29 08:01:44;;;;;;;6.07;2.50;;;24.80;63.90;;;;;;5076417;28;20150;-71
2023/07/29 08:04:10;;;;;;;4.75;3.00;;;24.90;63.70;;;;;;5091365;28;20122;-69
2023/07/29 08:06:36;;;;;;;4.40;2.40;;;24.90;63.70;;;;;;5077340;28;20569;-67
2023/07/29 08:09:03;;;;;;;6.75;2.55;;;24.70;63.50;;;;;;5070550;28;20911;-73
2023/07/29 08:11:29;;;;;;;3.50;2.08;;;24.70;63.70;;;;;;5073478;28;20508;-71
2023/07/29 08:13:55;;;;;;;4.60;1.73;;;24.50;63.60;;;;;;5086524;28;20028;-67
2023/07/29 08:16:21;;;;;;;4.70;2.15;;;24.40;63.80;;;;;;5079021;28;20674;-67
2023/07/29 08:18:47;;;;;;;3.63;1.98;;;24.30;64.00;;;;;;5062356;28;20570;-67
2023/07/29 08:21:13;;;;;;;4.07;2.03;;;24.20;64.20;;;;;;5072090;28;20032;-73
2023/07/29 08:23:39;;;;;;;2.97;1.73;;;24.10;64.40;;;;;;5063843;28;20109;-68
2023/07/29 08:26:06;;;;;;;3.47;1.73;;;24.10;64.80;;;;;;5079192;28;20472;-75
2023/07/29 08:28:37;;;;;;;5.72;2.35;;;24.10;64.70;;;;;;5078413;28;20089;-67
2023/07/29 08:31:04;;;;;;;3.67;2.70;;;24.10;64.40;;;;;;5075521;28;20028;-73
2023/07/29 08:33:31;;;;;;;3.85;1.90;;;24.10;64.40;;;;;;5087995;28;20220;-73
2023/07/29 08:35:57;;;;;;;3.08;1.58;;;24.10;64.50;;;;;;5081606;28;20377;-71
2023/07/29 08:38:24;;;;;;;6.68;2.35;;;24.20;64.70;;;;;;5077232;28;20027;-75
2023/07/29 08:40:55;;;;;;;7.43;1.60;;;24.30;64.50;;;;;;5079339;28;20122;-68
2023/07/29 08:43:27;;;;;;;3.08;1.77;;;24.50;64.30;;;;;;5072503;28;20033;-70
2023/07/29 08:45:53;;;;;;;3.70;1.63;;;24.80;64.20;;;;;;5083846;28;20039;-79
2023/07/29 08:48:29;;;;;;;4.15;1.85;;;25.10;63.90;;;;;;5085604;28;20070;-75
2023/07/29 08:50:56;;;;;;;4.93;1.65;;;25.20;63.00;;;;;;5069911;28;20035;-74
2023/07/29 08:53:24;;;;;;;5.25;1.63;;;25.50;62.60;;;;;;5074266;28;20040;-68
2023/07/29 08:55:55;;;;;;;5.57;2.42;;;25.70;62.00;;;;;;5079310;28;20499;-71
2023/07/29 08:58:22;;;;;;;4.68;2.00;;;25.80;61.50;;;;;;5069292;28;20457;-82
2023/07/29 09:00:49;;;;;;;3.05;1.50;;;25.80;61.20;;;;;;5079460;28;20063;-81
2023/07/29 09:03:15;;;;;;;3.80;1.23;;;25.90;61.00;;;;;;5075260;28;20055;-71
2023/07/29 09:05:41;;;;;;;5.22;1.73;;;26.00;60.80;;;;;;5085618;28;20487;-66
2023/07/29 09:08:07;;;;;;;4.18;1.52;;;26.20;60.40;;;;;;5064666;28;20954;-73
2023/07/29 09:10:39;;;;;;;5.68;2.03;;;26.30;59.80;;;;;;5076072;28;20040;-76
2023/07/29 09:13:05;;;;;;;5.60;2.10;;;26.20;59.40;;;;;;5078749;28;20435;-73
2023/07/29 09:15:33;;;;;;;6.07;1.98;;;26.10;59.50;;;;;;5076949;28;20528;-67
2023/07/29 09:18:14;;;;;;;5.85;1.75;;;26.10;59.70;;;;;;5076567;28;20032;-69
2023/07/29 09:20:40;;;;;;;5.97;1.92;;;26.00;59.60;;;;;;5084382;28;20059;-67
2023/07/29 09:23:10;;;;;;;2.83;1.00;;;26.00;59.80;;;;;;5076992;28;20054;-67
2023/07/29 09:25:37;;;;;;;5.00;2.10;;;26.10;59.60;;;;;;5060535;28;20140;-70
2023/07/29 09:28:12;;;;;;;4.03;1.50;;;26.10;59.60;;;;;;5093622;28;20023;-68
2023/07/29 09:30:43;;;;;;;5.07;1.52;;;26.00;59.40;;;;;;5087795;28;20028;-69
2023/07/29 09:33:09;;;;;;;4.28;1.80;;;25.90;59.60;;;;;;5089243;28;20032;-68
2023/07/29 09:35:37;;;;;;;2.40;1.48;;;25.90;59.80;;;;;;5102557;28;20214;-71
2023/07/29 09:38:05;;;;;;;5.15;1.42;;;25.90;59.90;;;;;;5099280;28;20508;-67
2023/07/29 09:40:36;;;;;;;4.15;1.60;;;26.10;59.70;;;;;;5088879;28;20039;-67
2023/07/29 09:43:02;;;;;;;4.20;1.70;;;26.30;59.30;;;;;;5074493;28;20020;-71
2023/07/29 09:45:28;;;;;;;3.85;1.50;;;26.40;58.90;;;;;;5082391;28;20479;-71
2023/07/29 09:47:56;;;;;;;4.95;1.50;;;26.50;58.50;;;;;;5080952;28;20067;-80
2023/07/29 09:50:26;;;;;;;2.85;1.10;;;26.60;58.10;;;;;;5089366;28;20040;-77
2023/07/29 09:52:53;;;;;;;5.32;2.05;;;26.70;57.70;;;;;;5072291;28;20829;-76
2023/07/29 09:55:22;;;;;;;7.00;1.98;;;26.70;57.50;;;;;;5073946;28;20515;-81
2023/07/29 09:57:48;;;;;;;5.18;1.30;;;26.80;57.10;;;;;;5091741;28;20046;-82
2023/07/29 10:00:14;;;;;;;3.97;1.33;;;26.80;57.00;;;;;;5084487;28;20032;-79
2023/07/29 10:02:42;;;;;;;3.97;1.42;;;26.80;56.90;;;;;;5083585;28;20130;-79
2023/07/29 10:05:08;;;;;;;10.95;2.83;;;26.70;56.90;;;;;;5083660;28;20040;-80
2023/07/29 10:07:39;;;;;;;4.47;1.67;;;26.70;56.90;;;;;;5070763;28;20655;-71
2023/07/29 10:10:07;;;;;;;6.57;1.88;;;26.70;56.80;;;;;;5096555;27;20047;-68
2023/07/29 10:12:35;;;;;;;6.63;1.92;;;26.60;56.70;;;;;;5093269;28;20070;-67
2023/07/29 10:15:04;;;;;;;7.57;1.75;;;26.50;56.90;;;;;;5094938;28;20042;-66
2023/07/29 10:17:33;;;;;;;4.85;1.65;;;26.40;57.10;;;;;;5098436;28;20023;-66
2023/07/29 10:19:59;;;;;;;4.35;1.38;;;26.50;57.10;;;;;;5090556;28;20039;-76
2023/07/29 10:22:32;;;;;;;5.05;1.63;;;26.50;57.10;;;;;;5090286;28;20032;-77
2023/07/29 10:25:02;;;;;;;;;;;26.70;56.60;;;;;;5093713;28;20085;-71
2023/07/29 10:27:29;;;;;;;3.55;1.33;;;27.00;56.30;;;;;;5096237;28;20274;-77
2023/07/29 10:29:56;;;;;;;5.97;1.75;;;27.30;55.90;;;;;;5099730;27;20042;-76
2023/07/29 10:32:26;;;;;;;7.78;2.47;;;27.50;55.40;;;;;;5088183;28;20024;-75
2023/07/29 10:34:54;;;;;;;6.95;1.63;;;27.70;54.90;;;;;;5071899;28;20043;-74
2023/07/29 10:37:21;;;;;;;7.20;1.90;;;27.80;54.60;;;;;;5072345;28;20043;-70
2023/07/29 10:39:55;;;;;;;4.28;1.42;;;28.00;54.40;;;;;;5089218;28;20636;-78
2023/07/29 10:42:21;;;;;;;7.90;2.08;;;28.00;54.20;;;;;;5079632;28;20036;-74
2023/07/29 10:44:54;;;;;;;3.78;1.90;;;28.00;54.10;;;;;;5082157;28;20046;-67
2023/07/29 10:47:29;;;;;;;9.30;2.53;;;28.10;53.90;;;;;;5086356;28;20051;-69
2023/07/29 10:49:57;;;;;;;4.95;1.70;;;28.10;53.70;;;;;;5073926;28;20025;-67
2023/07/29 10:52:35;;;;;;;7.00;2.38;;;28.10;53.70;;;;;;5078798;28;20531;-79
2023/07/29 10:55:03;;;;;;;9.60;2.22;;;28.00;53.50;;;;;;5066687;28;20134;-81
2023/07/29 10:57:41;;;;;;;12.77;3.33;;;28.10;53.70;;;;;;5081970;28;20062;-66
2023/07/29 11:00:07;;;;;;;12.63;4.32;;;28.10;53.80;;;;;;5075893;28;20116;-69
2023/07/29 11:02:38;;;;;;;21.40;13.73;;;28.10;54.20;;;;;;5080840;28;20016;-67
2023/07/29 11:05:17;;;;;;;22.65;13.13;;;28.20;54.60;;;;;;5081800;28;20127;-67
2023/07/29 11:07:49;;;;;;;23.30;10.60;;;28.20;54.90;;;;;;5063954;28;20551;-78
2023/07/29 11:10:16;;;;;;;19.02;10.60;;;28.20;55.00;;;;;;5079245;28;20035;-67
2023/07/29 11:12:54;;;;;;;16.77;10.68;;;28.20;55.30;;;;;;5079985;28;20226;-68
2023/07/29 11:15:27;;;;;;;12.48;7.53;;;28.20;55.60;;;;;;5079807;28;20039;-67
2023/07/29 11:17:53;;;;;;;10.30;6.05;;;28.30;55.40;;;;;;5080975;28;20130;-67
2023/07/29 11:20:22;;;;;;;12.38;6.45;;;28.40;54.90;;;;;;5062361;28;20032;-70
2023/07/29 11:22:48;;;;;;;8.65;5.35;;;28.60;54.40;;;;;;5078751;28;20028;-67
2023/07/29 11:25:16;;;;;;;12.52;5.18;;;28.70;54.00;;;;;;5081175;28;20093;-67
2023/07/29 11:27:42;;;;;;;9.00;4.90;;;28.90;53.40;;;;;;5090208;28;20088;-67
2023/07/29 11:30:11;;;;;;;8.25;4.80;;;28.90;52.90;;;;;;5084723;28;20036;-67
2023/07/29 11:32:39;;;;;;;7.40;4.13;;;29.00;52.70;;;;;;5075619;28;20624;-67
2023/07/29 11:35:16;;;;;;;8.73;3.85;;;29.10;52.30;;;;;;5075296;28;20051;-68
2023/07/29 11:37:45;;;;;;;8.10;3.33;;;29.20;52.00;;;;;;5076980;28;20582;-67
2023/07/29 11:40:17;;;;;;;8.23;4.35;;;29.20;51.80;;;;;;5093231;28;20055;-69
2023/07/29 11:42:44;;;;;;;;;;;29.30;51.60;;;;;;5071678;28;20028;-70
2023/07/29 11:45:10;;;;;;;8.18;4.13;;;29.30;52.30;;;;;;5073662;28;19920;-69
2023/07/29 11:47:37;;;;;;;7.85;3.03;;;29.40;51.90;;;;;;5079981;28;20030;-68
2023/07/29 11:50:09;;;;;;;9.25;4.18;;;29.50;51.70;;;;;;5085248;28;20032;-67
2023/07/29 11:52:39;;;;;;;7.03;2.58;;;29.60;51.40;;;;;;5080572;28;20043;-66
2023/07/29 11:55:06;;;;;;;5.47;2.42;;;29.60;51.00;;;;;;5079250;28;20501;-67
2023/07/29 11:57:37;;;;;;;6.65;2.80;;;29.70;50.60;;;;;;5079670;28;20028;-67
2023/07/29 12:00:09;;;;;;;7.38;2.42;;;29.80;50.40;;;;;;5078996;28;20035;-68
2023/07/29 12:02:38;;;;;;;7.90;2.78;;;30.00;50.30;;;;;;5082108;28;20155;-79
2023/07/29 12:05:05;;;;;;;7.18;2.13;;;30.20;50.10;;;;;;5080714;28;20420;-68
2023/07/29 12:07:33;;;;;;;6.82;2.80;;;30.40;49.70;;;;;;5070075;28;20963;-70
2023/07/29 12:09:59;;;;;;;6.93;2.10;;;30.40;49.50;;;;;;5079207;28;20392;-67
2023/07/29 12:12:25;;;;;;;10.35;2.88;;;30.40;49.10;;;;;;5079720;28;20031;-69
2023/07/29 12:14:54;;;;;;;5.05;2.00;;;30.50;48.80;;;;;;5082513;28;20039;-69
2023/07/29 12:17:20;;;;;;;5.35;2.20;;;30.50;48.60;;;;;;5092011;28;20088;-68
2023/07/29 12:19:46;;;;;;;8.45;2.28;;;30.50;48.40;;;;;;5080851;28;20040;-68
2023/07/29 12:22:12;;;;;;;4.47;1.58;;;30.60;48.40;;;;;;5086182;28;20097;-68
2023/07/29 12:24:40;;;;;;;4.45;1.80;;;30.60;48.00;;;;;;5080323;28;20039;-68
2023/07/29 12:27:12;;;;;;;6.90;2.60;;;30.80;47.80;;;;;;5082844;28;20444;-68
2023/07/29 12:29:46;;;;;;;6.15;2.08;;;30.90;47.30;;;;;;5082077;28;20051;-68
2023/07/29 12:32:13;;;;;;;3.25;1.63;;;31.10;47.10;;;;;;5070510;28;20110;-68
2023/07/29 12:34:39;;;;;;;5.72;2.42;;;31.30;47.20;;;;;;5083103;28;20059;-68
2023/07/29 12:37:06;;;;;;;6.20;1.65;;;31.50;47.10;;;;;;5078485;28;20046;-68
2023/07/29 12:39:34;;;;;;;6.55;2.30;;;31.70;47.00;;;;;;5082238;28;20483;-69
2023/07/29 12:42:02;;;;;;;4.75;1.45;;;31.70;46.70;;;;;;5081449;28;20117;-70
2023/07/29 12:44:35;;;;;;;7.38;2.10;;;31.70;46.30;;;;;;5083037;28;20548;-70
2023/07/29 12:47:04;;;;;;;6.32;1.77;;;31.80;46.40;;;;;;5075128;28;20036;-70
2023/07/29 12:49:30;;;;;;;5.55;1.67;;;31.70;46.60;;;;;;5079706;28;20032;-75